UAE777 KLGA-KBOS
Flight info
| Callsign | UAE777 |
|---|---|
| Flight time | 0h 38m |
| Altitude | 21000 |
| Route | MERIT ROBUC3 |
| Aircraft | A333/H-SDE3GHIJ2J3J5M1RVWXY/LB2D1 |
Departure
| Time | 2026-05-07 23:22 |
|---|---|
| Airport | LaGuardia Airport (KLGA) |
Arrival
| Time | 2026-05-08 00:00 |
|---|---|
| Airport | Boston Logan International Airport (KBOS) |
| Time | Latitude | Longitude | Altitude | Speed | Heading |
|---|---|---|---|---|---|
| 2026-05-07 23:04 | 40.77317 | -73.88477 | 16 ft | 0 kts | 8° |
| 2026-05-07 23:15 | 40.77312 | -73.88478 | 16 ft | 5 kts | 8° |
| 2026-05-07 23:15 | 40.77283 | -73.88415 | 16 ft | 7 kts | 231° |
| 2026-05-07 23:15 | 40.77262 | -73.88419 | 17 ft | 11 kts | 184° |
| 2026-05-07 23:15 | 40.77171 | -73.88427 | 19 ft | 13 kts | 187° |
| 2026-05-07 23:16 | 40.77081 | -73.88442 | 19 ft | 14 kts | 188° |
| 2026-05-07 23:16 | 40.76962 | -73.88433 | 21 ft | 13 kts | 136° |
| 2026-05-07 23:16 | 40.76995 | -73.88348 | 19 ft | 21 kts | 36° |
| 2026-05-07 23:16 | 40.77257 | -73.88129 | 19 ft | 81 kts | 32° |
| 2026-05-07 23:17 | 40.77571 | -73.87869 | 19 ft | 30 kts | 32° |
| 2026-05-07 23:17 | 40.77631 | -73.87717 | 19 ft | 8 kts | 132° |
| 2026-05-07 23:17 | 40.77584 | -73.87731 | 19 ft | 7 kts | 199° |
| 2026-05-07 23:17 | 40.77535 | -73.87754 | 19 ft | 7 kts | 208° |
| 2026-05-07 23:18 | 40.77484 | -73.87792 | 19 ft | 8 kts | 211° |
| 2026-05-07 23:18 | 40.77429 | -73.87836 | 19 ft | 9 kts | 211° |
| 2026-05-07 23:18 | 40.77369 | -73.87883 | 19 ft | 10 kts | 211° |
| 2026-05-07 23:18 | 40.77306 | -73.87935 | 19 ft | 11 kts | 212° |
| 2026-05-07 23:19 | 40.77237 | -73.87992 | 19 ft | 12 kts | 212° |
| 2026-05-07 23:19 | 40.77164 | -73.88054 | 19 ft | 12 kts | 213° |
| 2026-05-07 23:19 | 40.77088 | -73.88120 | 19 ft | 13 kts | 213° |
| 2026-05-07 23:19 | 40.77047 | -73.88156 | 19 ft | 4 kts | 214° |
| 2026-05-07 23:20 | 40.77025 | -73.88179 | 19 ft | 0 kts | 222° |
| 2026-05-07 23:20 | 40.77022 | -73.88183 | 19 ft | 1 kts | 222° |
| 2026-05-07 23:20 | 40.76986 | -73.88228 | 19 ft | 18 kts | 225° |
| 2026-05-07 23:20 | 40.76936 | -73.88343 | 20 ft | 8 kts | 307° |
| 2026-05-07 23:21 | 40.77008 | -73.88335 | 19 ft | 12 kts | 28° |
| 2026-05-07 23:21 | 40.77152 | -73.88214 | 19 ft | 45 kts | 32° |
| 2026-05-07 23:21 | 40.77657 | -73.87791 | 19 ft | 125 kts | 32° |
| 2026-05-07 23:21 | 40.78554 | -73.87053 | 289 ft | 167 kts | 31° |
| 2026-05-07 23:22 | 40.79539 | -73.86153 | 998 ft | 181 kts | 42° |
| 2026-05-07 23:22 | 40.80491 | -73.84929 | 1708 ft | 205 kts | 41° |
| 2026-05-07 23:22 | 40.81546 | -73.83601 | 2790 ft | 218 kts | 39° |
| 2026-05-07 23:22 | 40.82619 | -73.82279 | 4186 ft | 216 kts | 37° |
| 2026-05-07 23:23 | 40.83726 | -73.80936 | 5045 ft | 227 kts | 37° |
| 2026-05-07 23:23 | 40.84988 | -73.79408 | 4994 ft | 265 kts | 38° |
| 2026-05-07 23:23 | 40.86365 | -73.77720 | 5037 ft | 272 kts | 38° |
| 2026-05-07 23:23 | 40.87753 | -73.76021 | 5001 ft | 268 kts | 38° |
| 2026-05-07 23:24 | 40.89114 | -73.74357 | 5004 ft | 266 kts | 38° |
| 2026-05-07 23:24 | 40.90470 | -73.72701 | 5009 ft | 264 kts | 38° |
| 2026-05-07 23:24 | 40.91814 | -73.71056 | 5009 ft | 264 kts | 38° |
| 2026-05-07 23:24 | 40.93175 | -73.69394 | 5008 ft | 264 kts | 38° |
| 2026-05-07 23:25 | 40.94512 | -73.67756 | 5010 ft | 264 kts | 38° |
| 2026-05-07 23:25 | 40.95860 | -73.66104 | 5009 ft | 264 kts | 38° |
| 2026-05-07 23:25 | 40.97220 | -73.64441 | 5062 ft | 276 kts | 38° |
| 2026-05-07 23:25 | 40.98631 | -73.62706 | 5875 ft | 278 kts | 38° |
| 2026-05-07 23:26 | 41.00050 | -73.60965 | 6543 ft | 285 kts | 38° |
| 2026-05-07 23:26 | 41.01517 | -73.59164 | 7307 ft | 288 kts | 37° |
| 2026-05-07 23:26 | 41.02990 | -73.57352 | 8038 ft | 293 kts | 37° |
| 2026-05-07 23:26 | 41.04472 | -73.55531 | 8748 ft | 297 kts | 37° |
| 2026-05-07 23:27 | 41.07532 | -73.51764 | 10183 ft | 304 kts | 36° |
| 2026-05-07 23:27 | 41.09075 | -73.49863 | 10889 ft | 307 kts | 36° |
| 2026-05-07 23:27 | 41.10662 | -73.47907 | 11609 ft | 310 kts | 35° |
| 2026-05-07 23:28 | 41.12238 | -73.45963 | 12341 ft | 312 kts | 35° |
| 2026-05-07 23:28 | 41.13810 | -73.44022 | 13070 ft | 314 kts | 34° |
| 2026-05-07 23:28 | 41.15411 | -73.42044 | 13730 ft | 316 kts | 34° |
| 2026-05-07 23:28 | 41.17023 | -73.40055 | 14359 ft | 320 kts | 34° |
| 2026-05-07 23:29 | 41.18646 | -73.38048 | 15069 ft | 320 kts | 33° |
| 2026-05-07 23:29 | 41.20274 | -73.36032 | 15694 ft | 324 kts | 33° |
| 2026-05-07 23:29 | 41.21939 | -73.33968 | 16324 ft | 326 kts | 33° |
| 2026-05-07 23:29 | 41.23585 | -73.31928 | 17019 ft | 326 kts | 33° |
| 2026-05-07 23:30 | 41.25235 | -73.29880 | 17599 ft | 329 kts | 32° |
| 2026-05-07 23:30 | 41.26915 | -73.27799 | 18160 ft | 332 kts | 32° |
| 2026-05-07 23:30 | 41.28606 | -73.25693 | 18736 ft | 334 kts | 32° |
| 2026-05-07 23:30 | 41.30300 | -73.23592 | 19292 ft | 337 kts | 32° |
| 2026-05-07 23:31 | 41.32012 | -73.21461 | 19836 ft | 339 kts | 32° |
| 2026-05-07 23:31 | 41.33720 | -73.19335 | 20416 ft | 340 kts | 32° |
| 2026-05-07 23:31 | 41.35460 | -73.17164 | 21001 ft | 341 kts | 32° |
| 2026-05-07 23:31 | 41.37157 | -73.14965 | 21136 ft | 350 kts | 38° |
| 2026-05-07 23:32 | 41.38430 | -73.12070 | 21138 ft | 378 kts | 59° |
| 2026-05-07 23:32 | 41.38953 | -73.08571 | 21175 ft | 395 kts | 76° |
| 2026-05-07 23:32 | 41.39225 | -73.04967 | 21160 ft | 396 kts | 73° |
| 2026-05-07 23:32 | 41.39575 | -73.01314 | 21156 ft | 394 kts | 72° |
| 2026-05-07 23:33 | 41.39943 | -72.97753 | 21154 ft | 394 kts | 72° |
| 2026-05-07 23:33 | 41.40321 | -72.94160 | 21162 ft | 393 kts | 72° |
| 2026-05-07 23:33 | 41.40707 | -72.90537 | 21153 ft | 394 kts | 71° |
| 2026-05-07 23:33 | 41.41087 | -72.86951 | 21158 ft | 393 kts | 72° |
| 2026-05-07 23:34 | 41.41476 | -72.83325 | 21161 ft | 396 kts | 71° |
| 2026-05-07 23:34 | 41.41856 | -72.79725 | 21150 ft | 395 kts | 71° |
| 2026-05-07 23:34 | 41.42234 | -72.76144 | 21165 ft | 394 kts | 71° |
| 2026-05-07 23:34 | 41.42621 | -72.72501 | 21153 ft | 397 kts | 71° |
| 2026-05-07 23:35 | 41.42999 | -72.68896 | 21154 ft | 392 kts | 71° |
| 2026-05-07 23:35 | 41.43375 | -72.65317 | 21180 ft | 393 kts | 71° |
| 2026-05-07 23:35 | 41.43755 | -72.61685 | 21198 ft | 395 kts | 71° |
| 2026-05-07 23:35 | 41.44133 | -72.58062 | 21207 ft | 396 kts | 71° |
| 2026-05-07 23:36 | 41.44514 | -72.54416 | 21190 ft | 398 kts | 71° |
| 2026-05-07 23:36 | 41.44888 | -72.50787 | 21204 ft | 396 kts | 71° |
| 2026-05-07 23:36 | 41.45257 | -72.47189 | 21193 ft | 394 kts | 71° |
| 2026-05-07 23:36 | 41.45636 | -72.43546 | 21203 ft | 397 kts | 71° |
| 2026-05-07 23:37 | 41.46001 | -72.39972 | 21189 ft | 393 kts | 71° |
| 2026-05-07 23:37 | 41.46375 | -72.36322 | 21193 ft | 394 kts | 71° |
| 2026-05-07 23:37 | 41.46753 | -72.32684 | 21193 ft | 408 kts | 72° |
| 2026-05-07 23:37 | 41.47145 | -72.28841 | 21198 ft | 426 kts | 72° |
| 2026-05-07 23:38 | 41.47549 | -72.24852 | 21186 ft | 443 kts | 72° |
| 2026-05-07 23:38 | 41.48108 | -72.20789 | 21178 ft | 445 kts | 63° |
| 2026-05-07 23:38 | 41.49334 | -72.17075 | 21182 ft | 446 kts | 53° |
| 2026-05-07 23:38 | 41.50724 | -72.13336 | 21207 ft | 455 kts | 54° |
| 2026-05-07 23:39 | 41.52101 | -72.09573 | 21152 ft | 449 kts | 54° |
| 2026-05-07 23:39 | 41.53480 | -72.05804 | 21163 ft | 448 kts | 54° |
| 2026-05-07 23:39 | 41.54818 | -72.02132 | 21180 ft | 445 kts | 53° |
| 2026-05-07 23:39 | 41.56139 | -71.98347 | 21175 ft | 453 kts | 58° |
| 2026-05-07 23:40 | 41.57283 | -71.94453 | 21174 ft | 454 kts | 58° |
| 2026-05-07 23:40 | 41.58433 | -71.90585 | 21169 ft | 452 kts | 58° |
| 2026-05-07 23:40 | 41.59591 | -71.86693 | 21175 ft | 447 kts | 58° |
| 2026-05-07 23:40 | 41.60722 | -71.82873 | 20568 ft | 443 kts | 58° |
| 2026-05-07 23:41 | 41.61868 | -71.79012 | 19574 ft | 446 kts | 58° |
| 2026-05-07 23:41 | 41.63000 | -71.75173 | 19083 ft | 442 kts | 59° |
| 2026-05-07 23:41 | 41.64109 | -71.71401 | 19326 ft | 441 kts | 58° |
| 2026-05-07 23:41 | 41.65212 | -71.67645 | 19126 ft | 431 kts | 58° |
| 2026-05-07 23:42 | 41.66304 | -71.63943 | 18328 ft | 435 kts | 59° |
| 2026-05-07 23:42 | 41.67419 | -71.60156 | 18170 ft | 439 kts | 59° |
| 2026-05-07 23:42 | 41.68518 | -71.56388 | 18088 ft | 436 kts | 59° |
| 2026-05-07 23:42 | 41.69616 | -71.52642 | 17918 ft | 435 kts | 59° |
| 2026-05-07 23:43 | 41.70715 | -71.48872 | 17474 ft | 428 kts | 59° |
| 2026-05-07 23:43 | 41.71789 | -71.45200 | 16686 ft | 428 kts | 60° |
| 2026-05-07 23:43 | 41.73011 | -71.41666 | 16120 ft | 412 kts | 51° |
| 2026-05-07 23:43 | 41.74440 | -71.38354 | 15417 ft | 409 kts | 52° |
| 2026-05-07 23:44 | 41.75840 | -71.35090 | 14808 ft | 405 kts | 52° |
| 2026-05-07 23:44 | 41.77232 | -71.31835 | 14130 ft | 401 kts | 53° |
| 2026-05-07 23:44 | 41.78608 | -71.28612 | 13495 ft | 398 kts | 54° |
| 2026-05-07 23:44 | 41.79962 | -71.25433 | 12871 ft | 394 kts | 54° |
| 2026-05-07 23:45 | 41.81307 | -71.22280 | 12260 ft | 390 kts | 54° |
| 2026-05-07 23:45 | 41.82637 | -71.19144 | 12216 ft | 387 kts | 54° |
| 2026-05-07 23:45 | 41.83977 | -71.15994 | 12279 ft | 390 kts | 54° |
| 2026-05-07 23:45 | 41.85314 | -71.12846 | 12289 ft | 391 kts | 54° |
| 2026-05-07 23:46 | 41.86648 | -71.09746 | 12106 ft | 380 kts | 54° |
| 2026-05-07 23:46 | 41.87979 | -71.06675 | 11268 ft | 383 kts | 54° |
| 2026-05-07 23:46 | 41.89289 | -71.03638 | 10722 ft | 378 kts | 54° |
| 2026-05-07 23:46 | 41.90600 | -71.00599 | 10180 ft | 375 kts | 55° |
| 2026-05-07 23:47 | 41.91907 | -70.97564 | 10223 ft | 373 kts | 54° |
| 2026-05-07 23:47 | 41.93214 | -70.94530 | 10241 ft | 377 kts | 55° |
| 2026-05-07 23:47 | 41.94508 | -70.91524 | 10168 ft | 374 kts | 55° |
| 2026-05-07 23:47 | 41.95800 | -70.88510 | 10167 ft | 369 kts | 55° |
| 2026-05-07 23:48 | 41.97072 | -70.85552 | 9559 ft | 368 kts | 55° |
| 2026-05-07 23:48 | 41.98425 | -70.82652 | 8905 ft | 362 kts | 47° |
| 2026-05-07 23:48 | 42.00278 | -70.80485 | 8328 ft | 348 kts | 28° |
| 2026-05-07 23:48 | 42.02331 | -70.78843 | 7690 ft | 345 kts | 26° |
| 2026-05-07 23:49 | 42.04398 | -70.77212 | 7076 ft | 339 kts | 26° |
| 2026-05-07 23:49 | 42.06391 | -70.75651 | 6410 ft | 328 kts | 27° |
| 2026-05-07 23:49 | 42.08350 | -70.74140 | 5637 ft | 320 kts | 26° |
| 2026-05-07 23:49 | 42.10257 | -70.72684 | 4963 ft | 313 kts | 26° |
| 2026-05-07 23:50 | 42.12124 | -70.71267 | 4234 ft | 310 kts | 26° |
| 2026-05-07 23:50 | 42.13968 | -70.69950 | 4198 ft | 281 kts | 17° |
| 2026-05-07 23:50 | 42.15780 | -70.69558 | 4248 ft | 257 kts | 356° |
| 2026-05-07 23:50 | 42.17519 | -70.69610 | 4169 ft | 246 kts | 355° |
| 2026-05-07 23:51 | 42.19242 | -70.69657 | 4202 ft | 243 kts | 356° |
| 2026-05-07 23:51 | 42.20906 | -70.69705 | 4192 ft | 242 kts | 356° |
| 2026-05-07 23:51 | 42.22604 | -70.69765 | 4198 ft | 241 kts | 356° |
| 2026-05-07 23:51 | 42.24287 | -70.69823 | 4199 ft | 242 kts | 355° |
| 2026-05-07 23:52 | 42.25969 | -70.69885 | 4198 ft | 243 kts | 356° |
| 2026-05-07 23:52 | 42.27641 | -70.69947 | 4175 ft | 233 kts | 355° |
| 2026-05-07 23:52 | 42.29204 | -70.69997 | 4171 ft | 221 kts | 355° |
| 2026-05-07 23:52 | 42.30697 | -70.70039 | 4160 ft | 206 kts | 355° |
| 2026-05-07 23:53 | 42.32115 | -70.70075 | 4177 ft | 199 kts | 356° |
| 2026-05-07 23:53 | 42.33457 | -70.70107 | 4082 ft | 185 kts | 355° |
| 2026-05-07 23:53 | 42.34692 | -70.70124 | 3914 ft | 177 kts | 355° |
| 2026-05-07 23:53 | 42.35929 | -70.70142 | 3473 ft | 178 kts | 356° |
| 2026-05-07 23:54 | 42.37178 | -70.70164 | 3157 ft | 179 kts | 355° |
| 2026-05-07 23:54 | 42.38411 | -70.70224 | 3203 ft | 178 kts | 346° |
| 2026-05-07 23:54 | 42.39570 | -70.70805 | 3187 ft | 178 kts | 342° |
| 2026-05-07 23:54 | 42.40636 | -70.71594 | 3155 ft | 176 kts | 307° |
| 2026-05-07 23:55 | 42.40973 | -70.73138 | 3194 ft | 177 kts | 264° |
| 2026-05-07 23:55 | 42.40535 | -70.74712 | 3224 ft | 181 kts | 249° |
| 2026-05-07 23:55 | 42.40111 | -70.76322 | 3183 ft | 178 kts | 255° |
| 2026-05-07 23:55 | 42.39784 | -70.77805 | 3240 ft | 162 kts | 257° |
| 2026-05-07 23:56 | 42.39496 | -70.79260 | 2995 ft | 158 kts | 258° |
| 2026-05-07 23:56 | 42.39226 | -70.80700 | 2786 ft | 156 kts | 258° |
| 2026-05-07 23:56 | 42.38978 | -70.82064 | 2565 ft | 146 kts | 258° |
| 2026-05-07 23:56 | 42.38742 | -70.83390 | 2376 ft | 144 kts | 257° |
| 2026-05-07 23:57 | 42.38510 | -70.84700 | 2184 ft | 143 kts | 257° |
| 2026-05-07 23:57 | 42.38279 | -70.86013 | 1994 ft | 141 kts | 257° |
| 2026-05-07 23:57 | 42.38052 | -70.87305 | 1800 ft | 142 kts | 256° |
| 2026-05-07 23:57 | 42.37813 | -70.88656 | 1616 ft | 157 kts | 256° |
| 2026-05-07 23:58 | 42.37554 | -70.90123 | 1394 ft | 162 kts | 256° |
| 2026-05-07 23:58 | 42.37291 | -70.91615 | 1150 ft | 160 kts | 256° |
| 2026-05-07 23:58 | 42.37048 | -70.92986 | 919 ft | 146 kts | 255° |
| 2026-05-07 23:58 | 42.36812 | -70.94316 | 718 ft | 144 kts | 255° |
| 2026-05-07 23:59 | 42.36581 | -70.95624 | 527 ft | 143 kts | 255° |
| 2026-05-07 23:59 | 42.36350 | -70.96929 | 331 ft | 144 kts | 255° |
| 2026-05-07 23:59 | 42.36118 | -70.98249 | 133 ft | 144 kts | 255° |
| 2026-05-07 23:59 | 42.35884 | -70.99558 | 20 ft | 139 kts | 255° |
| 2026-05-08 00:00 | 42.35693 | -71.00628 | 18 ft | 83 kts | 256° |
| 2026-05-08 00:00 | 42.35634 | -71.01046 | 22 ft | 23 kts | 278° |
| 2026-05-08 00:00 | 42.35657 | -71.01141 | 24 ft | 0 kts | 297° |
| 2026-05-08 00:00 | 42.35657 | -71.01142 | 24 ft | 1 kts | 297° |
| 2026-05-08 00:01 | 42.35666 | -71.01163 | 25 ft | 4 kts | 301° |
| 2026-05-08 00:01 | 42.35692 | -71.01211 | 25 ft | 8 kts | 308° |
| 2026-05-08 00:01 | 42.35746 | -71.01249 | 25 ft | 10 kts | 356° |
| 2026-05-08 00:01 | 42.35841 | -71.01218 | 22 ft | 17 kts | 20° |
| 2026-05-08 00:02 | 42.35972 | -71.01153 | 21 ft | 22 kts | 19° |
| 2026-05-08 00:02 | 42.36131 | -71.01077 | 21 ft | 26 kts | 19° |
| 2026-05-08 00:02 | 42.36320 | -71.00987 | 18 ft | 31 kts | 19° |
| 2026-05-08 00:02 | 42.36433 | -71.00935 | 18 ft | 7 kts | 8° |
| 2026-05-08 00:03 | 42.36491 | -71.00976 | 18 ft | 12 kts | 306° |
| 2026-05-08 00:03 | 42.36533 | -71.01097 | 19 ft | 16 kts | 292° |
| 2026-05-08 00:03 | 42.36544 | -71.01206 | 20 ft | 7 kts | 245° |
| 2026-05-08 00:03 | 42.36525 | -71.01232 | 21 ft | 0 kts | 217° |
| 2026-05-08 00:04 | 42.36506 | -71.01247 | 21 ft | 8 kts | 207° |
| 2026-05-08 00:04 | 42.36444 | -71.01281 | 21 ft | 10 kts | 200° |
| 2026-05-08 00:04 | 42.36386 | -71.01317 | 21 ft | 6 kts | 224° |
| 2026-05-08 00:05 | 42.36373 | -71.01359 | 21 ft | 4 kts | 267° |
| 2026-05-08 00:05 | 42.36377 | -71.01376 | 21 ft | 2 kts | 298° |
| 2026-05-08 00:05 | 42.36402 | -71.01386 | 21 ft | 4 kts | 356° |
| 2026-05-08 00:05 | 42.36435 | -71.01381 | 21 ft | 4 kts | 10° |
| 2026-05-08 00:06 | 42.36465 | -71.01366 | 21 ft | 4 kts | 23° |
| 2026-05-08 00:06 | 42.36506 | -71.01341 | 21 ft | 6 kts | 25° |
| 2026-05-08 00:06 | 42.36531 | -71.01327 | 21 ft | 0 kts | 11° |
| 2026-05-08 00:06 | 42.36539 | -71.01332 | 20 ft | 1 kts | 328° |
| 2026-05-08 00:07 | 42.36551 | -71.01347 | 20 ft | 2 kts | 312° |
| 2026-05-08 00:07 | 42.36562 | -71.01367 | 20 ft | 2 kts | 303° |
| 2026-05-08 00:07 | 42.36565 | -71.01373 | 20 ft | 0 kts | 302° |